createdAt,value
2018-11-03T00:02:01.488Z,27.43
2018-11-03T00:04:32.835Z,28.93
2018-11-03T00:07:04.406Z,29.43
2018-11-03T00:09:36.236Z,28.83
2018-11-03T00:12:15.886Z,28.70
2018-11-03T00:14:48.944Z,29.50
2018-11-03T00:17:21.003Z,28.73
2018-11-03T00:19:51.501Z,29.87
2018-11-03T00:22:23.331Z,29.23
2018-11-03T00:24:56.692Z,30.00
2018-11-03T00:27:28.942Z,28.73
2018-11-03T00:30:00.712Z,28.10
2018-11-03T00:32:32.403Z,28.67
2018-11-03T00:35:03.691Z,28.17
2018-11-03T00:37:36.221Z,28.03
2018-11-03T00:40:15.083Z,27.80
2018-11-03T00:42:46.550Z,29.27
2018-11-03T00:45:18.177Z,28.73
2018-11-03T00:47:50.928Z,29.60
2018-11-03T00:50:22.596Z,28.17
2018-11-03T00:52:54.786Z,29.53
2018-11-03T00:55:26.867Z,28.07
2018-11-03T00:57:58.317Z,30.07
2018-11-03T01:00:30.896Z,27.83
2018-11-03T01:03:02.438Z,27.80
2018-11-03T01:05:33.557Z,29.13
2018-11-03T01:08:04.879Z,28.30
2018-11-03T01:10:41.356Z,28.93
2018-11-03T01:13:13.500Z,29.63
2018-11-03T01:15:45.236Z,28.57
2018-11-03T01:18:23.711Z,30.30
2018-11-03T01:20:54.920Z,29.77
2018-11-03T01:23:26.417Z,29.67
2018-11-03T01:25:57.745Z,28.27
2018-11-03T01:28:28.963Z,29.67
2018-11-03T01:30:59.232Z,28.50
2018-11-03T01:33:29.883Z,28.90
2018-11-03T01:36:02.116Z,28.77
2018-11-03T01:38:33.202Z,30.10
2018-11-03T01:41:04.523Z,29.80
2018-11-03T01:43:36.143Z,28.07
2018-11-03T01:46:16.170Z,29.90
2018-11-03T01:48:55.928Z,29.13
2018-11-03T01:51:29.133Z,29.27
2018-11-03T01:54:01.044Z,30.53
2018-11-03T01:56:32.195Z,30.77
2018-11-03T01:59:02.787Z,29.83
2018-11-03T02:01:38.816Z,31.63
2018-11-03T02:04:10.534Z,31.73
2018-11-03T02:06:41.873Z,32.30
2018-11-03T02:09:13.736Z,33.17
2018-11-03T02:11:45.691Z,31.73
2018-11-03T02:14:15.804Z,33.97
2018-11-03T02:16:47.454Z,34.60
2018-11-03T02:19:19.243Z,32.97
2018-11-03T02:21:50.893Z,33.57
2018-11-03T02:24:24.795Z,35.30
2018-11-03T02:26:57.335Z,34.53
2018-11-03T02:29:29.875Z,33.97
2018-11-03T02:32:07.201Z,34.67
2018-11-03T02:34:42.794Z,36.13
2018-11-03T02:37:15.013Z,35.53
2018-11-03T02:39:51.764Z,33.93
2018-11-03T02:42:23.872Z,35.13
2018-11-03T02:44:55.663Z,33.97
2018-11-03T02:47:28.062Z,35.40
2018-11-03T02:49:59.774Z,37.27
2018-11-03T02:52:31.403Z,34.77
2018-11-03T02:55:03.542Z,35.87
2018-11-03T02:57:35.263Z,35.13
2018-11-03T03:00:12.897Z,36.20
2018-11-03T03:02:44.385Z,36.50
2018-11-03T03:05:20.437Z,33.83
2018-11-03T03:07:52.104Z,33.97
2018-11-03T03:10:27.695Z,34.63
2018-11-03T03:12:59.390Z,34.07
2018-11-03T03:15:39.109Z,31.93
2018-11-03T03:18:10.400Z,31.93
2018-11-03T03:20:43.469Z,32.03
2018-11-03T03:23:15.360Z,32.40
2018-11-03T03:25:47.179Z,32.53
2018-11-03T03:28:19.737Z,31.63
2018-11-03T03:30:53.498Z,32.13
2018-11-03T03:33:26.961Z,32.43
2018-11-03T03:35:58.789Z,31.43
2018-11-03T03:38:34.129Z,34.30
2018-11-03T03:41:05.981Z,33.53
2018-11-03T03:43:36.271Z,32.87
2018-11-03T03:46:08.109Z,34.60
2018-11-03T03:48:39.418Z,35.70
2018-11-03T03:51:11.318Z,34.60
2018-11-03T03:53:42.081Z,33.43
2018-11-03T03:56:14.689Z,33.00
2018-11-03T03:58:45.792Z,33.23
2018-11-03T04:01:17.450Z,34.73
2018-11-03T04:03:49.510Z,33.43
2018-11-03T04:06:19.764Z,32.77
2018-11-03T04:08:52.185Z,33.53
2018-11-03T04:11:23.950Z,34.43
2018-11-03T04:13:54.340Z,34.53
2018-11-03T04:16:24.719Z,34.67
2018-11-03T04:18:56.639Z,34.33
2018-11-03T04:21:30.939Z,35.00
2018-11-03T04:24:02.001Z,34.73
2018-11-03T04:26:33.314Z,33.40
2018-11-03T04:29:04.739Z,33.77
2018-11-03T04:31:37.230Z,35.37
2018-11-03T04:34:08.249Z,35.03
2018-11-03T04:36:39.331Z,34.90
2018-11-03T04:39:12.264Z,36.37
2018-11-03T04:41:43.369Z,35.57
2018-11-03T04:44:14.460Z,35.77
2018-11-03T04:46:45.499Z,35.33
2018-11-03T04:49:16.070Z,35.63
2018-11-03T04:51:46.260Z,35.80
2018-11-03T04:54:16.629Z,35.83
2018-11-03T04:56:48.139Z,34.83
2018-11-03T04:59:18.599Z,35.73
2018-11-03T05:01:50.020Z,35.27
2018-11-03T05:04:20.410Z,35.43
2018-11-03T05:06:53.383Z,35.60
2018-11-03T05:09:24.439Z,35.37
2018-11-03T05:11:55.678Z,35.13
2018-11-03T05:14:26.178Z,34.17
2018-11-03T05:16:57.189Z,33.53
2018-11-03T05:19:28.889Z,34.33
2018-11-03T05:22:00.299Z,33.50
2018-11-03T05:24:31.769Z,33.17
2018-11-03T05:27:03.520Z,34.13
2018-11-03T05:29:35.231Z,31.83
2018-11-03T05:32:06.863Z,32.43
2018-11-03T05:34:39.819Z,33.57
2018-11-03T05:37:11.359Z,33.57
2018-11-03T05:39:42.050Z,32.63
2018-11-03T05:42:14.119Z,32.90
2018-11-03T05:44:45.880Z,32.10
2018-11-03T05:47:25.922Z,32.03
2018-11-03T05:50:05.949Z,32.53
2018-11-03T05:52:37.752Z,31.07
2018-11-03T05:55:09.529Z,31.97
2018-11-03T05:57:40.899Z,32.07
2018-11-03T06:00:12.971Z,30.93
2018-11-03T06:02:45.711Z,33.03
2018-11-03T06:05:17.429Z,32.83
2018-11-03T06:07:57.391Z,31.33
2018-11-03T06:10:29.416Z,31.80
2018-11-03T06:13:08.729Z,32.03
2018-11-03T06:15:44.200Z,31.97
2018-11-03T06:18:17.759Z,32.53
2018-11-03T06:20:56.129Z,33.07
2018-11-03T06:23:26.686Z,32.83
2018-11-03T06:25:58.768Z,31.83
2018-11-03T06:28:30.538Z,31.57
2018-11-03T06:31:02.132Z,31.83
2018-11-03T06:33:33.889Z,32.80
2018-11-03T06:36:07.567Z,32.03
2018-11-03T06:38:42.175Z,33.27
2018-11-03T06:41:22.104Z,32.83
2018-11-03T06:43:54.015Z,34.47
2018-11-03T06:46:25.941Z,33.03
2018-11-03T06:49:02.456Z,34.13
2018-11-03T06:51:35.574Z,33.97
2018-11-03T06:54:07.574Z,34.33
2018-11-03T06:56:39.137Z,34.63
2018-11-03T06:59:15.405Z,34.03
2018-11-03T07:01:48.404Z,34.07
2018-11-03T07:04:25.706Z,33.30
2018-11-03T07:07:05.475Z,33.83
2018-11-03T07:09:36.603Z,33.27
2018-11-03T07:12:08.831Z,33.30
2018-11-03T07:14:40.496Z,32.83
2018-11-03T07:17:20.175Z,32.57
2018-11-03T07:19:52.197Z,33.50
2018-11-03T07:22:24.536Z,33.40
2018-11-03T07:25:01.466Z,33.77
2018-11-03T07:27:32.884Z,32.33
2018-11-03T07:30:03.045Z,32.03
2018-11-03T07:32:34.605Z,31.23
2018-11-03T07:35:05.416Z,32.40
2018-11-03T07:37:36.006Z,31.60
2018-11-03T07:40:10.647Z,31.13
2018-11-03T07:42:42.607Z,31.37
2018-11-03T07:45:13.514Z,31.50
2018-11-03T07:47:46.430Z,32.63
2018-11-03T07:50:18.195Z,32.17
2018-11-03T07:52:49.404Z,33.03
2018-11-03T07:55:19.746Z,31.40
2018-11-03T07:57:50.438Z,31.63
2018-11-03T08:00:22.292Z,32.70
2018-11-03T08:02:52.995Z,32.10
2018-11-03T08:05:24.835Z,30.83
2018-11-03T08:07:56.544Z,30.73
2018-11-03T08:10:28.424Z,31.43
2018-11-03T08:12:59.036Z,30.83
2018-11-03T08:15:29.922Z,30.07
2018-11-03T08:18:00.097Z,30.53
2018-11-03T08:20:32.795Z,29.70
2018-11-03T08:23:03.465Z,28.90
2018-11-03T08:25:35.244Z,30.43
2018-11-03T08:28:08.255Z,29.63
2018-11-03T08:30:39.575Z,29.00
2018-11-03T08:33:12.505Z,30.20
2018-11-03T08:35:42.916Z,30.23
2018-11-03T08:38:14.135Z,31.33
2018-11-03T08:40:47.016Z,30.23
2018-11-03T08:43:18.395Z,30.17
2018-11-03T08:45:49.945Z,30.00
2018-11-03T08:48:21.239Z,29.37
2018-11-03T08:50:53.279Z,28.87
2018-11-03T08:53:25.696Z,28.33
2018-11-03T08:55:56.335Z,29.53
2018-11-03T08:58:27.936Z,30.50
2018-11-03T09:00:58.586Z,28.13
2018-11-03T09:03:30.316Z,27.63
2018-11-03T09:06:02.928Z,27.57
2018-11-03T09:08:34.815Z,28.43
2018-11-03T09:11:05.416Z,27.63
2018-11-03T09:13:36.980Z,26.47
2018-11-03T09:16:08.520Z,25.90
2018-11-03T09:18:48.077Z,25.37
2018-11-03T09:21:26.231Z,26.63
2018-11-03T09:24:05.849Z,26.77
2018-11-03T09:26:40.679Z,26.57
2018-11-03T09:29:13.421Z,25.30
2018-11-03T09:31:46.058Z,25.67
2018-11-03T09:34:18.349Z,27.00
2018-11-03T09:36:50.188Z,26.93
2018-11-03T09:39:22.157Z,27.43
2018-11-03T09:41:54.131Z,26.77
2018-11-03T09:44:25.749Z,28.23
2018-11-03T09:46:56.969Z,28.70
2018-11-03T09:49:29.399Z,27.43
2018-11-03T09:52:00.910Z,29.80
2018-11-03T09:54:31.759Z,27.93
2018-11-03T09:57:02.620Z,26.00
2018-11-03T09:59:33.136Z,26.53
2018-11-03T10:02:04.641Z,26.17
2018-11-03T10:04:36.019Z,26.47
2018-11-03T10:07:07.278Z,25.97
2018-11-03T10:09:39.510Z,25.63
2018-11-03T10:12:11.359Z,27.03
2018-11-03T10:14:42.969Z,26.90
2018-11-03T10:17:14.369Z,26.27
2018-11-03T10:19:45.416Z,27.60
2018-11-03T10:22:15.904Z,26.00
2018-11-03T10:24:46.129Z,25.53
2018-11-03T10:27:19.363Z,25.60
2018-11-03T10:29:51.039Z,25.93
2018-11-03T10:32:31.208Z,27.23
2018-11-03T10:35:04.459Z,26.97
2018-11-03T10:38:02.052Z,26.53
2018-11-03T10:40:47.079Z,26.20
2018-11-03T10:43:26.666Z,26.17
2018-11-03T10:46:06.327Z,26.60
2018-11-03T10:48:42.830Z,26.17
2018-11-03T10:51:19.896Z,27.43
2018-11-03T10:53:59.664Z,27.53
2018-11-03T10:56:37.210Z,26.53
2018-11-03T10:59:12.944Z,25.87
2018-11-03T11:01:53.185Z,26.73
2018-11-03T11:04:35.674Z,26.90
2018-11-03T11:07:20.326Z,25.77
2018-11-03T11:10:04.860Z,26.50
2018-11-03T11:12:44.349Z,25.87
2018-11-03T11:15:20.753Z,26.90
2018-11-03T11:17:55.821Z,26.40
2018-11-03T11:20:31.250Z,27.40
2018-11-03T11:23:04.923Z,27.03
2018-11-03T11:25:36.816Z,26.60
2018-11-03T11:28:10.082Z,26.90
2018-11-03T11:30:43.901Z,27.43
2018-11-03T11:33:19.669Z,27.40
2018-11-03T11:35:58.770Z,27.57
2018-11-03T11:38:31.818Z,27.73
2018-11-03T11:41:07.918Z,27.63
2018-11-03T11:43:42.867Z,28.63
2018-11-03T11:46:20.237Z,29.57
2018-11-03T11:48:53.965Z,27.90
2018-11-03T11:51:30.275Z,27.30
2018-11-03T11:54:06.388Z,28.63
2018-11-03T11:56:42.420Z,27.70
2018-11-03T11:59:17.238Z,29.33
2018-11-03T12:01:50.378Z,31.40
2018-11-03T12:04:23.750Z,30.23
2018-11-03T12:06:57.341Z,28.77
2018-11-03T12:09:29.229Z,30.17
2018-11-03T12:12:07.586Z,29.37
2018-11-03T12:14:43.331Z,28.93
2018-11-03T12:17:16.733Z,29.57
2018-11-03T12:19:53.021Z,28.50
2018-11-03T12:22:28.928Z,28.77
2018-11-03T12:25:08.764Z,27.90
2018-11-03T12:27:45.502Z,28.10
2018-11-03T12:30:17.262Z,27.10
2018-11-03T12:32:49.822Z,25.77
2018-11-03T12:35:22.132Z,25.17
2018-11-03T12:37:53.842Z,26.37
2018-11-03T12:40:31.543Z,26.50
2018-11-03T12:43:03.707Z,27.70
2018-11-03T12:45:43.296Z,27.00
2018-11-03T12:48:18.976Z,26.37
2018-11-03T12:50:50.559Z,28.73
2018-11-03T12:53:21.893Z,25.00
2018-11-03T12:55:57.681Z,25.17
2018-11-03T12:58:29.321Z,24.93
2018-11-03T13:01:00.249Z,25.57
2018-11-03T13:03:31.459Z,24.30
2018-11-03T13:06:02.664Z,25.27
2018-11-03T13:08:34.562Z,24.53
2018-11-03T13:11:05.661Z,23.80
2018-11-03T13:13:37.831Z,24.17
2018-11-03T13:16:10.124Z,25.37
2018-11-03T13:18:42.318Z,24.87
2018-11-03T13:21:13.060Z,24.17
2018-11-03T13:23:46.552Z,24.00
2018-11-03T13:26:22.639Z,24.27
2018-11-03T13:28:54.924Z,24.53
2018-11-03T13:31:28.558Z,24.63
2018-11-03T13:34:00.051Z,24.37
2018-11-03T13:36:31.779Z,23.03
2018-11-03T13:39:10.564Z,24.10
2018-11-03T13:41:50.772Z,25.17
2018-11-03T13:44:27.114Z,24.40
2018-11-03T13:47:07.275Z,24.90
2018-11-03T13:49:43.859Z,26.37
2018-11-03T13:52:15.718Z,25.20
2018-11-03T13:54:48.288Z,25.77
2018-11-03T13:57:20.828Z,24.87
2018-11-03T13:59:52.299Z,26.87
2018-11-03T14:02:25.518Z,25.10
2018-11-03T14:04:58.440Z,24.93
2018-11-03T14:07:30.948Z,25.93
2018-11-03T14:10:02.788Z,25.83
2018-11-03T14:12:39.668Z,26.50
2018-11-03T14:15:20.109Z,25.57
2018-11-03T14:17:53.399Z,26.33
2018-11-03T14:20:33.238Z,26.57
2018-11-03T14:23:13.755Z,25.73
2018-11-03T14:25:45.527Z,25.30
2018-11-03T14:28:17.012Z,27.07
2018-11-03T14:30:48.929Z,27.33
2018-11-03T14:33:23.781Z,26.47
2018-11-03T14:36:00.711Z,27.13
2018-11-03T14:38:31.223Z,27.00
2018-11-03T14:41:02.431Z,26.53
2018-11-03T14:43:41.586Z,25.73
2018-11-03T14:46:21.115Z,25.10
2018-11-03T14:48:52.874Z,25.93
2018-11-03T14:51:25.317Z,26.57
2018-11-03T14:54:02.190Z,29.00
2018-11-03T14:56:35.961Z,28.37
2018-11-03T14:59:16.400Z,27.87
2018-11-03T15:01:56.100Z,27.80
2018-11-03T15:04:36.276Z,27.93
2018-11-03T15:07:07.454Z,27.77
2018-11-03T15:09:38.573Z,28.10
2018-11-03T15:12:14.374Z,26.10
2018-11-03T15:14:45.779Z,27.03
2018-11-03T15:17:25.367Z,25.83
2018-11-03T15:19:57.318Z,26.53
2018-11-03T15:22:33.032Z,26.43
2018-11-03T15:25:04.573Z,27.23
2018-11-03T15:27:44.995Z,26.67
2018-11-03T15:30:20.073Z,25.60
2018-11-03T15:32:59.299Z,27.70
2018-11-03T15:35:38.552Z,27.83
2018-11-03T15:38:16.012Z,27.87
2018-11-03T15:40:50.741Z,28.10
2018-11-03T15:43:22.390Z,25.97
2018-11-03T15:45:53.790Z,28.27
2018-11-03T15:48:30.477Z,27.30
2018-11-03T15:51:02.126Z,27.03
2018-11-03T15:53:34.057Z,27.53
2018-11-03T15:56:07.027Z,27.80
2018-11-03T15:58:44.613Z,28.53
2018-11-03T16:01:24.984Z,28.17
2018-11-03T16:03:56.305Z,28.53
2018-11-03T16:06:27.896Z,27.47
2018-11-03T16:08:59.055Z,27.83
2018-11-03T16:11:31.524Z,28.77
2018-11-03T16:14:02.174Z,28.40
2018-11-03T16:16:33.584Z,29.23
2018-11-03T16:19:04.314Z,28.87
2018-11-03T16:21:35.938Z,28.90
2018-11-03T16:24:07.224Z,30.07
2018-11-03T16:26:38.449Z,30.03
2018-11-03T16:29:09.645Z,30.80
2018-11-03T16:31:41.254Z,30.63
2018-11-03T16:34:12.304Z,29.67
2018-11-03T16:36:43.004Z,30.67
2018-11-03T16:39:14.161Z,30.83
2018-11-03T16:41:46.214Z,30.53
2018-11-03T16:44:17.275Z,29.33
2018-11-03T16:46:48.794Z,30.40
2018-11-03T16:49:21.835Z,29.83
2018-11-03T16:51:52.684Z,29.03
2018-11-03T16:54:28.855Z,28.97
2018-11-03T16:57:13.514Z,30.23
2018-11-03T16:59:57.919Z,29.43
2018-11-03T17:02:28.651Z,30.67
2018-11-03T17:05:01.017Z,30.13
2018-11-03T17:07:31.987Z,30.60
2018-11-03T17:10:10.207Z,31.03
2018-11-03T17:13:04.495Z,31.33
2018-11-03T17:15:58.864Z,29.97
2018-11-03T17:18:51.125Z,30.97
2018-11-03T17:21:23.794Z,31.73
2018-11-03T17:23:56.144Z,30.23
2018-11-03T17:26:33.424Z,31.97
2018-11-03T17:29:21.359Z,31.93
2018-11-03T17:32:10.923Z,33.43
2018-11-03T17:34:55.175Z,32.57
2018-11-03T17:37:28.614Z,31.97
2018-11-03T17:40:25.796Z,34.33
2018-11-03T17:43:10.321Z,32.70
2018-11-03T17:45:43.884Z,34.07
2018-11-03T17:48:28.254Z,32.60
2018-11-03T17:51:37.417Z,34.03
2018-11-03T17:54:30.300Z,31.47
2018-11-03T17:57:21.134Z,32.67
2018-11-03T18:00:30.319Z,31.57
2018-11-03T18:03:35.555Z,32.43
2018-11-03T18:06:38.263Z,32.43
2018-11-03T18:09:44.233Z,31.37
2018-11-03T18:12:48.374Z,31.50
2018-11-03T18:15:31.734Z,31.03
2018-11-03T18:18:29.596Z,29.37
2018-11-03T18:21:02.394Z,29.97
2018-11-03T18:23:51.605Z,30.93
2018-11-03T18:33:33.484Z,28.20
2018-11-03T18:36:25.555Z,29.27
2018-11-03T18:39:18.594Z,29.80
2018-11-03T18:42:10.716Z,30.63
2018-11-03T18:53:17.295Z,29.27
2018-11-03T18:56:07.304Z,29.83
2018-11-03T18:58:55.075Z,31.00
2018-11-03T19:01:45.875Z,30.00
2018-11-03T19:04:28.155Z,30.73
2018-11-03T19:07:23.634Z,30.23
2018-11-03T19:09:55.121Z,30.83
2018-11-03T19:12:28.105Z,31.03
2018-11-03T19:15:00.455Z,31.57
2018-11-03T19:17:32.823Z,32.13
2018-11-03T19:20:19.984Z,31.50
2018-11-03T19:23:05.964Z,32.00
2018-11-03T19:25:37.943Z,33.77
2018-11-03T19:28:10.637Z,32.17
2018-11-03T19:30:42.283Z,33.20
2018-11-03T19:33:15.125Z,33.57
2018-11-03T19:35:46.624Z,32.63
2018-11-03T19:38:17.664Z,32.00
2018-11-03T19:40:48.474Z,33.17
2018-11-03T19:43:19.594Z,31.10
2018-11-03T19:45:50.444Z,30.93
2018-11-03T19:48:21.260Z,29.53
2018-11-03T19:50:53.303Z,28.43
2018-11-03T19:53:23.820Z,28.33
2018-11-03T19:55:54.728Z,27.83
2018-11-03T19:58:25.383Z,32.97
2018-11-03T20:01:03.016Z,32.20
2018-11-03T20:03:40.384Z,31.93
2018-11-03T20:06:21.874Z,30.63
2018-11-03T20:08:58.405Z,30.53
2018-11-03T20:11:34.754Z,30.60
2018-11-03T20:14:10.249Z,30.20
2018-11-03T20:16:49.385Z,31.67
2018-11-03T20:19:23.855Z,31.03
2018-11-03T20:21:59.275Z,31.23
2018-11-03T20:24:34.805Z,31.00
2018-11-03T20:27:26.853Z,29.20
2018-11-03T20:29:59.523Z,29.53
2018-11-03T20:32:36.495Z,32.93
2018-11-03T20:35:16.756Z,31.97
2018-11-03T20:37:51.877Z,29.83
2018-11-03T20:40:22.915Z,29.60
2018-11-03T20:42:59.437Z,31.00
2018-11-03T20:45:32.295Z,29.53
2018-11-03T20:48:10.323Z,29.47
2018-11-03T20:50:42.045Z,30.53
2018-11-03T20:53:13.105Z,29.43
2018-11-03T20:55:44.756Z,29.73
2018-11-03T20:58:20.935Z,29.70
2018-11-03T21:00:56.465Z,29.53
2018-11-03T21:03:34.035Z,30.03
2018-11-03T21:06:08.508Z,29.73
2018-11-03T21:08:41.475Z,30.80
2018-11-03T21:11:16.685Z,29.27
2018-11-03T21:13:52.157Z,30.73
2018-11-03T21:16:28.364Z,30.70
2018-11-03T21:19:03.739Z,30.93
2018-11-03T21:21:40.554Z,30.67
2018-11-03T21:24:14.194Z,30.60
2018-11-03T21:26:48.154Z,30.33
2018-11-03T21:29:23.215Z,31.20
2018-11-03T21:31:54.116Z,31.90
2018-11-03T21:34:28.214Z,30.67
2018-11-03T21:37:04.919Z,31.33
2018-11-03T21:39:38.814Z,32.07
2018-11-03T21:42:16.504Z,30.73
2018-11-03T21:44:52.614Z,31.23
2018-11-03T21:47:26.000Z,31.80
2018-11-03T21:50:01.364Z,30.97
2018-11-03T21:52:38.694Z,30.63
2018-11-03T21:55:18.194Z,30.03
2018-11-03T21:57:53.804Z,29.97
2018-11-03T22:00:31.396Z,31.43
2018-11-03T22:03:05.644Z,31.03
2018-11-03T22:05:37.624Z,30.37
2018-11-03T22:08:10.644Z,30.63
2018-11-03T22:10:46.365Z,30.47
2018-11-03T22:13:20.474Z,30.37
2018-11-03T22:15:51.920Z,30.57
2018-11-03T22:18:40.755Z,32.37
2018-11-03T22:21:13.917Z,31.30
2018-11-03T22:23:47.935Z,29.10
2018-11-03T22:26:24.032Z,30.30
2018-11-03T22:29:00.096Z,30.70
2018-11-03T22:31:36.325Z,32.07
2018-11-03T22:34:09.794Z,31.47
2018-11-03T22:36:43.384Z,31.47
2018-11-03T22:39:16.649Z,31.50
2018-11-03T22:41:51.072Z,31.33
2018-11-03T22:44:23.504Z,31.07
2018-11-03T22:46:56.723Z,30.47
2018-11-03T22:49:32.683Z,30.27
2018-11-03T22:52:08.665Z,30.53
2018-11-03T22:54:43.623Z,30.97
2018-11-03T22:57:14.457Z,30.27
2018-11-03T22:59:45.836Z,30.23
2018-11-03T23:02:18.775Z,29.90
2018-11-03T23:04:52.504Z,30.60
2018-11-03T23:07:25.314Z,30.07
2018-11-03T23:09:58.695Z,30.13
2018-11-03T23:12:47.115Z,30.80
2018-11-03T23:15:19.654Z,31.07
2018-11-03T23:17:53.797Z,32.53
2018-11-03T23:20:25.884Z,32.43
2018-11-03T23:22:59.294Z,33.97
2018-11-03T23:25:34.943Z,33.33
2018-11-03T23:28:09.191Z,31.87
2018-11-03T23:30:41.435Z,30.33
2018-11-03T23:33:13.504Z,31.53
2018-11-03T23:35:46.024Z,30.97
2018-11-03T23:38:17.784Z,32.47
2018-11-03T23:40:49.463Z,31.93
2018-11-03T23:43:20.864Z,32.30
2018-11-03T23:45:52.146Z,31.47
2018-11-03T23:48:23.283Z,32.23
2018-11-03T23:50:55.155Z,31.90
2018-11-03T23:53:28.813Z,31.20
2018-11-03T23:56:00.005Z,29.77
2018-11-03T23:58:31.555Z,30.30
